< < Back
Terminal Aerodrome Forecast


Current Version              Previous Versions:   1  2  3  4  5  6  7  8  9  

Terminal Aerodrome Forecast

145
FTUS42 KTAE 281902 AAA
TAFDHN
TAF AMD
KDHN 281902Z 2819/2918 23010KT P6SM SCT070
     FM282000 20007KT P6SM VCTS SCT050CB
     FM290200 VRB04KT P6SM SCT250=

Latest METAR

992
SAUS70 KWBC 290500 RRK
MTRDHN
METAR KDHN 290453Z AUTO 24006KT 10SM CLR 26/24 A3007 RMK AO2 SLP176
T02610239


USA.gov is the U.S. government's official web portal to all federal, state and local government web resources and services.